sensor_id;sensor_type;location;lat;lon;timestamp;pressure;altitude;pressure_sealevel;temperature;humidity
69411;BME280;56604;48.652;9.194;2022-08-02T00:00:08;96565.88;;;18.55;84.89
69411;BME280;56604;48.652;9.194;2022-08-02T00:02:34;96558.72;;;18.56;84.73
69411;BME280;56604;48.652;9.194;2022-08-02T00:04:59;96551.13;;;18.63;84.66
69411;BME280;56604;48.652;9.194;2022-08-02T00:07:24;96550.91;;;18.59;84.52
69411;BME280;56604;48.652;9.194;2022-08-02T00:09:50;96541.84;;;18.60;84.79
69411;BME280;56604;48.652;9.194;2022-08-02T00:12:15;96542.44;;;18.57;84.33
69411;BME280;56604;48.652;9.194;2022-08-02T00:14:41;96543.00;;;18.54;84.18
69411;BME280;56604;48.652;9.194;2022-08-02T00:17:06;96539.06;;;18.52;84.76
69411;BME280;56604;48.652;9.194;2022-08-02T00:19:32;96544.38;;;18.52;84.88
69411;BME280;56604;48.652;9.194;2022-08-02T00:21:57;96544.56;;;18.41;85.12
69411;BME280;56604;48.652;9.194;2022-08-02T00:24:23;96549.00;;;18.46;85.15
69411;BME280;56604;48.652;9.194;2022-08-02T00:26:48;96554.41;;;18.41;85.30
69411;BME280;56604;48.652;9.194;2022-08-02T00:29:13;96553.41;;;18.37;85.86
69411;BME280;56604;48.652;9.194;2022-08-02T00:31:39;96556.59;;;18.39;85.61
69411;BME280;56604;48.652;9.194;2022-08-02T00:34:04;96558.34;;;18.43;86.10
69411;BME280;56604;48.652;9.194;2022-08-02T00:36:29;96564.13;;;18.51;85.52
69411;BME280;56604;48.652;9.194;2022-08-02T00:38:55;96562.50;;;18.50;85.15
69411;BME280;56604;48.652;9.194;2022-08-02T00:41:21;96567.19;;;18.58;84.96
69411;BME280;56604;48.652;9.194;2022-08-02T00:43:48;96567.28;;;18.53;85.12
69411;BME280;56604;48.652;9.194;2022-08-02T00:46:14;96559.78;;;18.55;84.86
69411;BME280;56604;48.652;9.194;2022-08-02T00:48:40;96565.31;;;18.58;83.85
69411;BME280;56604;48.652;9.194;2022-08-02T00:51:05;96555.69;;;18.43;83.84
69411;BME280;56604;48.652;9.194;2022-08-02T00:53:31;96547.50;;;18.40;84.03
69411;BME280;56604;48.652;9.194;2022-08-02T00:55:57;96547.25;;;18.23;84.09
69411;BME280;56604;48.652;9.194;2022-08-02T00:58:22;96553.38;;;18.23;84.34
69411;BME280;56604;48.652;9.194;2022-08-02T01:00:48;96553.09;;;18.06;84.21
69411;BME280;56604;48.652;9.194;2022-08-02T01:03:13;96550.38;;;18.11;84.22
69411;BME280;56604;48.652;9.194;2022-08-02T01:05:39;96542.88;;;18.13;84.18
69411;BME280;56604;48.652;9.194;2022-08-02T01:08:04;96546.03;;;18.15;83.60
69411;BME280;56604;48.652;9.194;2022-08-02T01:10:30;96550.16;;;18.07;84.03
69411;BME280;56604;48.652;9.194;2022-08-02T01:12:55;96543.03;;;18.03;83.89
69411;BME280;56604;48.652;9.194;2022-08-02T01:15:21;96545.75;;;17.97;83.88
69411;BME280;56604;48.652;9.194;2022-08-02T01:18:05;96539.34;;;17.98;83.77
69411;BME280;56604;48.652;9.194;2022-08-02T01:26:46;96538.22;;;17.86;83.92
69411;BME280;56604;48.652;9.194;2022-08-02T01:29:18;96531.91;;;17.82;84.21
69411;BME280;56604;48.652;9.194;2022-08-02T01:31:51;96537.94;;;17.87;84.08
69411;BME280;56604;48.652;9.194;2022-08-02T01:34:26;96540.69;;;17.82;84.51
69411;BME280;56604;48.652;9.194;2022-08-02T01:39:41;96552.31;;;17.86;84.13
69411;BME280;56604;48.652;9.194;2022-08-02T01:42:09;96551.31;;;17.82;84.43
69411;BME280;56604;48.652;9.194;2022-08-02T01:44:37;96555.09;;;17.76;84.37
69411;BME280;56604;48.652;9.194;2022-08-02T01:47:07;96545.25;;;17.76;84.34
69411;BME280;56604;48.652;9.194;2022-08-02T01:49:34;96551.91;;;17.79;84.18
69411;BME280;56604;48.652;9.194;2022-08-02T01:52:02;96551.47;;;17.67;85.18
69411;BME280;56604;48.652;9.194;2022-08-02T01:55:04;96549.78;;;17.76;84.33
69411;BME280;56604;48.652;9.194;2022-08-02T01:57:34;96542.56;;;17.58;84.45
69411;BME280;56604;48.652;9.194;2022-08-02T02:00:02;96550.53;;;17.58;84.71
69411;BME280;56604;48.652;9.194;2022-08-02T02:02:30;96550.59;;;17.52;85.04
69411;BME280;56604;48.652;9.194;2022-08-02T02:04:56;96543.13;;;17.54;85.01
69411;BME280;56604;48.652;9.194;2022-08-02T02:07:25;96553.56;;;17.51;85.29
69411;BME280;56604;48.652;9.194;2022-08-02T02:09:53;96562.22;;;17.38;84.97
69411;BME280;56604;48.652;9.194;2022-08-02T02:12:20;96555.50;;;17.45;85.27
69411;BME280;56604;48.652;9.194;2022-08-02T02:14:46;96562.94;;;17.43;85.17
69411;BME280;56604;48.652;9.194;2022-08-02T02:17:14;96564.19;;;17.51;85.05
69411;BME280;56604;48.652;9.194;2022-08-02T02:19:41;96555.91;;;17.52;84.72
69411;BME280;56604;48.652;9.194;2022-08-02T02:22:06;96558.09;;;17.50;85.00
69411;BME280;56604;48.652;9.194;2022-08-02T02:24:32;96557.84;;;17.47;84.71
69411;BME280;56604;48.652;9.194;2022-08-02T02:26:59;96561.13;;;17.39;84.81
69411;BME280;56604;48.652;9.194;2022-08-02T02:29:28;96556.22;;;17.51;85.02
69411;BME280;56604;48.652;9.194;2022-08-02T02:31:55;96556.28;;;17.46;84.72
69411;BME280;56604;48.652;9.194;2022-08-02T02:34:28;96550.03;;;17.56;84.20
69411;BME280;56604;48.652;9.194;2022-08-02T02:36:55;96553.78;;;17.54;84.30
69411;BME280;56604;48.652;9.194;2022-08-02T02:39:22;96551.06;;;17.60;84.04
69411;BME280;56604;48.652;9.194;2022-08-02T02:41:52;96546.25;;;17.62;84.11
69411;BME280;56604;48.652;9.194;2022-08-02T02:44:19;96552.72;;;17.74;83.49
69411;BME280;56604;48.652;9.194;2022-08-02T02:46:47;96545.69;;;17.84;83.21
69411;BME280;56604;48.652;9.194;2022-08-02T02:49:14;96546.28;;;17.81;83.15
69411;BME280;56604;48.652;9.194;2022-08-02T02:51:41;96551.25;;;17.87;83.28
69411;BME280;56604;48.652;9.194;2022-08-02T02:54:08;96540.03;;;17.90;82.92
69411;BME280;56604;48.652;9.194;2022-08-02T02:56:37;96548.00;;;17.90;82.93
69411;BME280;56604;48.652;9.194;2022-08-02T02:59:03;96548.22;;;17.94;82.65
69411;BME280;56604;48.652;9.194;2022-08-02T03:01:29;96539.94;;;17.95;82.38
69411;BME280;56604;48.652;9.194;2022-08-02T03:04:04;96547.91;;;17.95;82.48
69411;BME280;56604;48.652;9.194;2022-08-02T03:06:31;96540.63;;;17.87;82.32
69411;BME280;56604;48.652;9.194;2022-08-02T03:08:56;96531.16;;;17.76;82.82
69411;BME280;56604;48.652;9.194;2022-08-02T03:11:23;96533.88;;;17.71;82.79
69411;BME280;56604;48.652;9.194;2022-08-02T03:13:49;96529.13;;;17.49;83.16
69411;BME280;56604;48.652;9.194;2022-08-02T03:16:14;96537.09;;;17.49;83.17
69411;BME280;56604;48.652;9.194;2022-08-02T03:18:41;96534.31;;;17.16;84.25
69411;BME280;56604;48.652;9.194;2022-08-02T03:21:09;96536.34;;;17.00;85.68
69411;BME280;56604;48.652;9.194;2022-08-02T03:23:41;96538.22;;;17.00;85.98
69411;BME280;56604;48.652;9.194;2022-08-02T03:26:08;96535.50;;;17.05;85.68
69411;BME280;56604;48.652;9.194;2022-08-02T03:28:33;96539.22;;;17.04;85.72
69411;BME280;56604;48.652;9.194;2022-08-02T03:30:59;96545.31;;;17.04;85.62
69411;BME280;56604;48.652;9.194;2022-08-02T03:33:26;96537.88;;;17.06;85.56
69411;BME280;56604;48.652;9.194;2022-08-02T03:35:54;96547.50;;;17.02;85.35
69411;BME280;56604;48.652;9.194;2022-08-02T03:38:22;96547.50;;;17.02;85.30
69411;BME280;56604;48.652;9.194;2022-08-02T03:40:48;96550.41;;;17.01;85.18
69411;BME280;56604;48.652;9.194;2022-08-02T03:43:15;96548.53;;;17.01;85.09
69411;BME280;56604;48.652;9.194;2022-08-02T03:45:46;96557.59;;;17.00;84.72
69411;BME280;56604;48.652;9.194;2022-08-02T03:48:13;96551.75;;;16.98;84.82
69411;BME280;56604;48.652;9.194;2022-08-02T03:50:39;96553.41;;;16.94;85.37
69411;BME280;56604;48.652;9.194;2022-08-02T03:53:06;96548.94;;;16.90;84.91
69411;BME280;56604;48.652;9.194;2022-08-02T03:55:32;96558.19;;;16.92;85.12
69411;BME280;56604;48.652;9.194;2022-08-02T03:57:58;96558.72;;;16.94;85.12
69411;BME280;56604;48.652;9.194;2022-08-02T04:00:23;96554.97;;;16.95;84.86
69411;BME280;56604;48.652;9.194;2022-08-02T04:02:49;96556.97;;;17.08;84.65
69411;BME280;56604;48.652;9.194;2022-08-02T04:05:16;96563.47;;;17.21;84.13
69411;BME280;56604;48.652;9.194;2022-08-02T04:07:41;96553.47;;;17.37;83.24
69411;BME280;56604;48.652;9.194;2022-08-02T04:10:08;96558.94;;;17.46;82.58
69411;BME280;56604;48.652;9.194;2022-08-02T04:12:33;96560.66;;;17.56;82.52
69411;BME280;56604;48.652;9.194;2022-08-02T04:14:59;96564.66;;;17.77;81.55
69411;BME280;56604;48.652;9.194;2022-08-02T04:17:26;96561.94;;;18.01;80.60
69411;BME280;56604;48.652;9.194;2022-08-02T04:20:01;96576.91;;;18.16;79.79
69411;BME280;56604;48.652;9.194;2022-08-02T04:22:30;96574.25;;;18.16;79.32
69411;BME280;56604;48.652;9.194;2022-08-02T04:25:00;96576.41;;;18.47;78.28
69411;BME280;56604;48.652;9.194;2022-08-02T04:27:28;96581.19;;;18.82;77.00
69411;BME280;56604;48.652;9.194;2022-08-02T04:29:54;96586.34;;;18.93;76.54
69411;BME280;56604;48.652;9.194;2022-08-02T04:32:21;96585.56;;;19.06;76.06
69411;BME280;56604;48.652;9.194;2022-08-02T04:34:47;96582.59;;;19.76;72.82
69411;BME280;56604;48.652;9.194;2022-08-02T04:37:12;96581.47;;;20.28;71.34
69411;BME280;56604;48.652;9.194;2022-08-02T04:39:40;96579.53;;;20.42;70.79
69411;BME280;56604;48.652;9.194;2022-08-02T04:42:05;96579.75;;;20.99;68.53
69411;BME280;56604;48.652;9.194;2022-08-02T04:44:31;96585.69;;;20.96;68.21
69411;BME280;56604;48.652;9.194;2022-08-02T04:46:59;96592.97;;;21.04;67.36
69411;BME280;56604;48.652;9.194;2022-08-02T04:49:24;96584.19;;;21.44;66.11
69411;BME280;56604;48.652;9.194;2022-08-02T04:51:50;96583.50;;;21.29;66.88
69411;BME280;56604;48.652;9.194;2022-08-02T04:54:15;96586.59;;;21.63;66.83
69411;BME280;56604;48.652;9.194;2022-08-02T04:56:41;96585.03;;;21.62;65.91
69411;BME280;56604;48.652;9.194;2022-08-02T04:59:07;96588.19;;;21.64;66.31
69411;BME280;56604;48.652;9.194;2022-08-02T05:01:32;96588.09;;;21.95;65.05
69411;BME280;56604;48.652;9.194;2022-08-02T05:04:00;96584.03;;;22.41;63.97
69411;BME280;56604;48.652;9.194;2022-08-02T05:06:26;96588.72;;;22.53;63.15
69411;BME280;56604;48.652;9.194;2022-08-02T05:08:51;96587.59;;;22.62;62.52
69411;BME280;56604;48.652;9.194;2022-08-02T05:11:17;96586.97;;;22.74;62.13
69411;BME280;56604;48.652;9.194;2022-08-02T05:13:42;96588.88;;;21.95;64.12
69411;BME280;56604;48.652;9.194;2022-08-02T05:16:08;96591.94;;;21.23;67.54
69411;BME280;56604;48.652;9.194;2022-08-02T05:18:33;96594.25;;;20.76;69.21
69411;BME280;56604;48.652;9.194;2022-08-02T05:20:59;96585.06;;;21.30;68.02
69411;BME280;56604;48.652;9.194;2022-08-02T05:23:24;96584.78;;;21.89;66.84
69411;BME280;56604;48.652;9.194;2022-08-02T05:25:49;96579.25;;;23.28;62.15
69411;BME280;56604;48.652;9.194;2022-08-02T05:28:15;96581.50;;;23.86;59.66
69411;BME280;56604;48.652;9.194;2022-08-02T05:30:41;96581.44;;;24.36;58.23
69411;BME280;56604;48.652;9.194;2022-08-02T05:33:06;96587.19;;;25.26;55.49
69411;BME280;56604;48.652;9.194;2022-08-02T05:35:32;96576.75;;;25.86;54.02
69411;BME280;56604;48.652;9.194;2022-08-02T05:37:57;96570.81;;;26.20;53.72
69411;BME280;56604;48.652;9.194;2022-08-02T05:40:23;96580.94;;;25.01;56.46
69411;BME280;56604;48.652;9.194;2022-08-02T05:42:48;96585.13;;;26.09;54.48
69411;BME280;56604;48.652;9.194;2022-08-02T05:45:14;96591.13;;;25.28;56.05
69411;BME280;56604;48.652;9.194;2022-08-02T05:47:39;96584.72;;;25.57;54.31
69411;BME280;56604;48.652;9.194;2022-08-02T05:50:06;96588.56;;;26.50;52.30
69411;BME280;56604;48.652;9.194;2022-08-02T05:55:18;96584.78;;;28.87;46.24
69411;BME280;56604;48.652;9.194;2022-08-02T05:58:01;96575.38;;;29.73;44.94
69411;BME280;56604;48.652;9.194;2022-08-02T06:00:31;96590.16;;;29.29;43.70
69411;BME280;56604;48.652;9.194;2022-08-02T06:05:39;96590.41;;;26.05;53.18
69411;BME280;56604;48.652;9.194;2022-08-02T06:08:06;96597.69;;;26.17;52.01
69411;BME280;56604;48.652;9.194;2022-08-02T06:10:36;96602.31;;;25.18;55.51
69411;BME280;56604;48.652;9.194;2022-08-02T06:13:11;96597.91;;;24.68;57.02
69411;BME280;56604;48.652;9.194;2022-08-02T06:15:38;96604.13;;;24.81;56.45
69411;BME280;56604;48.652;9.194;2022-08-02T06:18:06;96598.28;;;25.61;55.15
69411;BME280;56604;48.652;9.194;2022-08-02T06:20:32;96586.59;;;26.90;52.06
69411;BME280;56604;48.652;9.194;2022-08-02T06:23:01;96594.78;;;26.50;52.44
69411;BME280;56604;48.652;9.194;2022-08-02T06:25:28;96586.81;;;26.69;52.47
69411;BME280;56604;48.652;9.194;2022-08-02T06:27:54;96595.38;;;27.16;50.54
69411;BME280;56604;48.652;9.194;2022-08-02T06:30:20;96593.41;;;27.79;49.31
69411;BME280;56604;48.652;9.194;2022-08-02T06:32:50;96591.19;;;28.40;48.35
69411;BME280;56604;48.652;9.194;2022-08-02T06:35:16;96590.38;;;28.75;47.93
69411;BME280;56604;48.652;9.194;2022-08-02T06:37:57;96595.84;;;29.21;46.35
69411;BME280;56604;48.652;9.194;2022-08-02T06:45:48;96595.09;;;27.52;49.93
69411;BME280;56604;48.652;9.194;2022-08-02T06:48:13;96594.88;;;26.13;52.81
69411;BME280;56604;48.652;9.194;2022-08-02T06:50:38;96591.88;;;27.47;49.24
69411;BME280;56604;48.652;9.194;2022-08-02T06:53:06;96593.56;;;26.91;50.47
69411;BME280;56604;48.652;9.194;2022-08-02T06:55:35;96591.47;;;27.96;48.88
69411;BME280;56604;48.652;9.194;2022-08-02T06:58:00;96585.00;;;28.20;49.16
69411;BME280;56604;48.652;9.194;2022-08-02T07:00:27;96598.53;;;28.78;47.19
69411;BME280;56604;48.652;9.194;2022-08-02T07:02:52;96594.13;;;29.35;44.82
69411;BME280;56604;48.652;9.194;2022-08-02T07:05:23;96590.34;;;29.93;43.19
69411;BME280;56604;48.652;9.194;2022-08-02T07:07:49;96607.56;;;26.81;48.72
69411;BME280;56604;48.652;9.194;2022-08-02T07:10:15;96602.75;;;27.34;49.20
69411;BME280;56604;48.652;9.194;2022-08-02T07:12:40;96603.28;;;27.24;47.35
69411;BME280;56604;48.652;9.194;2022-08-02T07:15:06;96601.00;;;29.06;45.10
69411;BME280;56604;48.652;9.194;2022-08-02T07:17:33;96592.81;;;31.41;40.32
69411;BME280;56604;48.652;9.194;2022-08-02T07:19:59;96606.91;;;28.50;43.38
69411;BME280;56604;48.652;9.194;2022-08-02T07:22:26;96606.63;;;29.93;42.11
69411;BME280;56604;48.652;9.194;2022-08-02T07:24:53;96600.63;;;30.07;42.75
69411;BME280;56604;48.652;9.194;2022-08-02T07:27:19;96603.22;;;30.27;43.10
69411;BME280;56604;48.652;9.194;2022-08-02T07:29:45;96607.91;;;30.60;41.93
69411;BME280;56604;48.652;9.194;2022-08-02T07:32:10;96616.13;;;26.99;47.88
69411;BME280;56604;48.652;9.194;2022-08-02T07:34:36;96605.56;;;29.25;44.65
69411;BME280;56604;48.652;9.194;2022-08-02T07:37:01;96609.84;;;28.25;47.40
69411;BME280;56604;48.652;9.194;2022-08-02T07:39:27;96608.28;;;30.28;44.28
69411;BME280;56604;48.652;9.194;2022-08-02T07:41:53;96599.72;;;31.34;41.51
69411;BME280;56604;48.652;9.194;2022-08-02T07:44:18;96603.22;;;31.87;39.86
69411;BME280;56604;48.652;9.194;2022-08-02T07:46:45;96601.47;;;30.75;41.98
69411;BME280;56604;48.652;9.194;2022-08-02T07:49:11;96607.41;;;31.25;41.84
69411;BME280;56604;48.652;9.194;2022-08-02T07:51:42;96602.09;;;29.51;46.02
69411;BME280;56604;48.652;9.194;2022-08-02T07:54:08;96608.13;;;30.47;43.10
69411;BME280;56604;48.652;9.194;2022-08-02T07:56:33;96602.09;;;30.61;42.62
69411;BME280;56604;48.652;9.194;2022-08-02T07:58:59;96600.84;;;31.81;41.15
69411;BME280;56604;48.652;9.194;2022-08-02T08:01:24;96598.09;;;31.26;40.72
69411;BME280;56604;48.652;9.194;2022-08-02T08:03:49;96609.00;;;31.81;39.71
69411;BME280;56604;48.652;9.194;2022-08-02T08:06:15;96605.81;;;31.21;40.09
69411;BME280;56604;48.652;9.194;2022-08-02T08:08:40;96607.13;;;31.89;40.77
69411;BME280;56604;48.652;9.194;2022-08-02T08:11:06;96612.47;;;31.30;40.41
69411;BME280;56604;48.652;9.194;2022-08-02T08:13:31;96610.44;;;32.27;38.86
69411;BME280;56604;48.652;9.194;2022-08-02T08:15:56;96608.88;;;32.22;37.99
69411;BME280;56604;48.652;9.194;2022-08-02T08:18:22;96617.41;;;31.14;40.51
69411;BME280;56604;48.652;9.194;2022-08-02T08:20:48;96610.06;;;31.63;40.85
69411;BME280;56604;48.652;9.194;2022-08-02T08:23:13;96625.47;;;28.52;44.88
69411;BME280;56604;48.652;9.194;2022-08-02T08:25:39;96608.63;;;30.90;42.83
69411;BME280;56604;48.652;9.194;2022-08-02T08:28:04;96609.28;;;31.62;39.88
69411;BME280;56604;48.652;9.194;2022-08-02T08:30:29;96611.06;;;31.99;38.18
69411;BME280;56604;48.652;9.194;2022-08-02T08:32:55;96605.81;;;32.38;39.06
69411;BME280;56604;48.652;9.194;2022-08-02T08:35:20;96618.00;;;31.89;38.54
69411;BME280;56604;48.652;9.194;2022-08-02T08:37:45;96621.66;;;32.08;38.73
69411;BME280;56604;48.652;9.194;2022-08-02T08:40:11;96621.66;;;31.11;39.52
69411;BME280;56604;48.652;9.194;2022-08-02T08:42:38;96623.69;;;32.36;37.89
69411;BME280;56604;48.652;9.194;2022-08-02T08:45:04;96625.66;;;32.35;39.17
69411;BME280;56604;48.652;9.194;2022-08-02T08:47:40;96629.34;;;32.82;37.76
69411;BME280;56604;48.652;9.194;2022-08-02T08:50:11;96617.38;;;33.23;37.46
69411;BME280;56604;48.652;9.194;2022-08-02T08:52:43;96618.50;;;32.93;37.06
69411;BME280;56604;48.652;9.194;2022-08-02T08:55:13;96617.00;;;33.13;36.51
69411;BME280;56604;48.652;9.194;2022-08-02T08:57:41;96619.25;;;32.97;37.00
69411;BME280;56604;48.652;9.194;2022-08-02T09:00:08;96619.72;;;32.12;39.18
69411;BME280;56604;48.652;9.194;2022-08-02T09:02:35;96613.56;;;31.22;39.60
69411;BME280;56604;48.652;9.194;2022-08-02T09:05:00;96617.50;;;27.53;47.11
69411;BME280;56604;48.652;9.194;2022-08-02T09:07:26;96614.88;;;29.74;42.77
69411;BME280;56604;48.652;9.194;2022-08-02T09:09:52;96610.44;;;30.79;41.32
69411;BME280;56604;48.652;9.194;2022-08-02T09:12:19;96614.97;;;30.34;41.89
69411;BME280;56604;48.652;9.194;2022-08-02T09:14:49;96603.16;;;29.66;44.82
69411;BME280;56604;48.652;9.194;2022-08-02T09:17:15;96607.78;;;30.83;41.92
69411;BME280;56604;48.652;9.194;2022-08-02T09:19:40;96609.13;;;30.66;40.78
69411;BME280;56604;48.652;9.194;2022-08-02T09:22:07;96616.25;;;28.95;43.91
69411;BME280;56604;48.652;9.194;2022-08-02T09:24:47;96604.50;;;29.07;44.93
69411;BME280;56604;48.652;9.194;2022-08-02T09:27:15;96612.28;;;28.89;46.22
69411;BME280;56604;48.652;9.194;2022-08-02T09:29:45;96599.41;;;29.74;44.52
69411;BME280;56604;48.652;9.194;2022-08-02T09:32:12;96596.69;;;30.65;42.53
69411;BME280;56604;48.652;9.194;2022-08-02T09:34:51;96593.13;;;30.91;41.94
69411;BME280;56604;48.652;9.194;2022-08-02T09:37:28;96591.00;;;29.83;44.70
69411;BME280;56604;48.652;9.194;2022-08-02T09:39:55;96597.47;;;31.99;41.31
69411;BME280;56604;48.652;9.194;2022-08-02T09:42:23;96589.44;;;32.20;39.39
69411;BME280;56604;48.652;9.194;2022-08-02T09:44:57;96588.44;;;31.84;41.60
69411;BME280;56604;48.652;9.194;2022-08-02T09:47:27;96588.91;;;31.42;39.79
69411;BME280;56604;48.652;9.194;2022-08-02T09:49:54;96587.34;;;30.62;40.24
69411;BME280;56604;48.652;9.194;2022-08-02T09:52:27;96591.59;;;30.26;40.09
69411;BME280;56604;48.652;9.194;2022-08-02T09:54:53;96588.41;;;29.64;44.42
69411;BME280;56604;48.652;9.194;2022-08-02T09:57:26;96586.47;;;29.41;42.52
69411;BME280;56604;48.652;9.194;2022-08-02T09:59:54;96592.72;;;29.45;42.44
69411;BME280;56604;48.652;9.194;2022-08-02T10:02:20;96590.28;;;28.52;44.79
69411;BME280;56604;48.652;9.194;2022-08-02T10:04:46;96592.09;;;28.44;44.75
69411;BME280;56604;48.652;9.194;2022-08-02T10:07:11;96597.41;;;28.21;44.84
69411;BME280;56604;48.652;9.194;2022-08-02T10:09:37;96598.41;;;27.97;45.16
69411;BME280;56604;48.652;9.194;2022-08-02T10:12:04;96597.69;;;27.01;48.04
69411;BME280;56604;48.652;9.194;2022-08-02T10:14:32;96598.25;;;26.79;47.97
69411;BME280;56604;48.652;9.194;2022-08-02T10:16:58;96599.50;;;27.13;47.62
69411;BME280;56604;48.652;9.194;2022-08-02T10:19:24;96599.69;;;27.52;46.73
69411;BME280;56604;48.652;9.194;2022-08-02T10:22:00;96589.19;;;27.98;45.58
69411;BME280;56604;48.652;9.194;2022-08-02T10:24:27;96583.25;;;28.66;44.32
69411;BME280;56604;48.652;9.194;2022-08-02T10:26:54;96581.13;;;28.56;44.44
69411;BME280;56604;48.652;9.194;2022-08-02T10:29:24;96582.09;;;28.29;43.89
69411;BME280;56604;48.652;9.194;2022-08-02T10:31:56;96581.13;;;27.03;47.12
69411;BME280;56604;48.652;9.194;2022-08-02T10:34:27;96576.28;;;26.36;48.82
69411;BME280;56604;48.652;9.194;2022-08-02T10:36:54;96571.00;;;26.68;46.67
69411;BME280;56604;48.652;9.194;2022-08-02T10:39:20;96571.81;;;26.84;48.05
69411;BME280;56604;48.652;9.194;2022-08-02T10:41:49;96572.47;;;27.25;45.53
69411;BME280;56604;48.652;9.194;2022-08-02T10:44:28;96566.50;;;26.88;47.22
69411;BME280;56604;48.652;9.194;2022-08-02T10:49:59;96561.34;;;27.14;46.04
69411;BME280;56604;48.652;9.194;2022-08-02T10:52:30;96567.81;;;27.10;46.91
69411;BME280;56604;48.652;9.194;2022-08-02T10:54:57;96569.25;;;27.35;47.87
69411;BME280;56604;48.652;9.194;2022-08-02T10:57:33;96564.19;;;27.85;43.50
69411;BME280;56604;48.652;9.194;2022-08-02T11:02:43;96555.47;;;28.31;42.90
69411;BME280;56604;48.652;9.194;2022-08-02T11:05:16;96546.88;;;28.87;41.44
69411;BME280;56604;48.652;9.194;2022-08-02T11:07:47;96567.22;;;28.19;42.33
69411;BME280;56604;48.652;9.194;2022-08-02T11:15:46;96541.38;;;28.21;42.17
69411;BME280;56604;48.652;9.194;2022-08-02T11:18:12;96533.84;;;28.50;41.92
69411;BME280;56604;48.652;9.194;2022-08-02T11:20:37;96545.63;;;28.03;43.91
69411;BME280;56604;48.652;9.194;2022-08-02T11:23:37;96535.59;;;28.62;43.46
69411;BME280;56604;48.652;9.194;2022-08-02T11:28:53;96544.06;;;27.83;42.83
69411;BME280;56604;48.652;9.194;2022-08-02T11:31:18;96540.53;;;28.17;42.50
69411;BME280;56604;48.652;9.194;2022-08-02T11:33:44;96536.31;;;27.65;43.73
69411;BME280;56604;48.652;9.194;2022-08-02T11:36:09;96529.44;;;28.22;41.55
69411;BME280;56604;48.652;9.194;2022-08-02T11:38:34;96536.56;;;28.50;42.40
69411;BME280;56604;48.652;9.194;2022-08-02T11:41:00;96532.97;;;27.88;41.72
69411;BME280;56604;48.652;9.194;2022-08-02T11:43:27;96540.53;;;27.98;42.63
69411;BME280;56604;48.652;9.194;2022-08-02T11:45:55;96536.88;;;27.55;42.85
69411;BME280;56604;48.652;9.194;2022-08-02T11:48:34;96540.38;;;27.55;44.61
69411;BME280;56604;48.652;9.194;2022-08-02T11:51:07;96534.00;;;28.18;42.18
69411;BME280;56604;48.652;9.194;2022-08-02T11:53:47;96532.72;;;27.93;42.43
69411;BME280;56604;48.652;9.194;2022-08-02T11:56:15;96533.44;;;28.09;42.26
69411;BME280;56604;48.652;9.194;2022-08-02T11:58:41;96526.22;;;28.17;43.47
69411;BME280;56604;48.652;9.194;2022-08-02T12:01:24;96532.22;;;27.71;42.99
69411;BME280;56604;48.652;9.194;2022-08-02T12:03:49;96529.50;;;27.20;44.91
69411;BME280;56604;48.652;9.194;2022-08-02T12:06:16;96522.56;;;27.19;43.50
69411;BME280;56604;48.652;9.194;2022-08-02T12:08:42;96514.44;;;26.43;45.05
69411;BME280;56604;48.652;9.194;2022-08-02T12:11:08;96520.88;;;26.11;44.89
69411;BME280;56604;48.652;9.194;2022-08-02T12:13:44;96522.22;;;26.17;47.08
69411;BME280;56604;48.652;9.194;2022-08-02T12:16:11;96520.84;;;26.23;45.77
69411;BME280;56604;48.652;9.194;2022-08-02T12:18:56;96525.13;;;26.40;44.68
69411;BME280;56604;48.652;9.194;2022-08-02T12:21:39;96518.22;;;26.55;45.52
69411;BME280;56604;48.652;9.194;2022-08-02T12:24:05;96519.81;;;26.56;43.76
69411;BME280;56604;48.652;9.194;2022-08-02T12:26:40;96530.63;;;26.72;45.35
69411;BME280;56604;48.652;9.194;2022-08-02T12:29:05;96522.28;;;27.08;44.14
69411;BME280;56604;48.652;9.194;2022-08-02T12:31:42;96527.19;;;27.19;44.49
69411;BME280;56604;48.652;9.194;2022-08-02T12:34:16;96527.31;;;26.94;43.63
69411;BME280;56604;48.652;9.194;2022-08-02T12:37:03;96529.13;;;26.74;44.82
69411;BME280;56604;48.652;9.194;2022-08-02T12:39:40;96520.19;;;26.70;43.70
69411;BME280;56604;48.652;9.194;2022-08-02T12:42:09;96515.97;;;26.57;43.32
69411;BME280;56604;48.652;9.194;2022-08-02T12:44:52;96515.47;;;26.83;42.55
69411;BME280;56604;48.652;9.194;2022-08-02T12:47:18;96508.00;;;26.92;42.84
69411;BME280;56604;48.652;9.194;2022-08-02T12:49:46;96508.59;;;26.85;44.47
69411;BME280;56604;48.652;9.194;2022-08-02T12:52:21;96508.44;;;27.10;43.88
69411;BME280;56604;48.652;9.194;2022-08-02T12:54:47;96506.84;;;27.09;42.50
69411;BME280;56604;48.652;9.194;2022-08-02T12:57:16;96501.66;;;27.16;42.91
69411;BME280;56604;48.652;9.194;2022-08-02T12:59:48;96502.66;;;27.43;42.59
69411;BME280;56604;48.652;9.194;2022-08-02T13:02:14;96492.91;;;27.39;41.11
69411;BME280;56604;48.652;9.194;2022-08-02T13:04:40;96491.75;;;27.55;40.62
69411;BME280;56604;48.652;9.194;2022-08-02T13:07:06;96492.56;;;27.75;42.11
69411;BME280;56604;48.652;9.194;2022-08-02T13:09:40;96485.69;;;27.97;40.96
69411;BME280;56604;48.652;9.194;2022-08-02T13:12:07;96488.16;;;28.06;40.82
69411;BME280;56604;48.652;9.194;2022-08-02T13:14:32;96492.28;;;27.80;41.34
69411;BME280;56604;48.652;9.194;2022-08-02T13:16:58;96496.91;;;27.80;39.97
69411;BME280;56604;48.652;9.194;2022-08-02T13:19:23;96490.56;;;27.72;41.38
69411;BME280;56604;48.652;9.194;2022-08-02T13:21:48;96488.56;;;27.69;41.11
69411;BME280;56604;48.652;9.194;2022-08-02T13:24:15;96483.50;;;27.68;42.63
69411;BME280;56604;48.652;9.194;2022-08-02T13:26:44;96487.31;;;27.83;41.31
69411;BME280;56604;48.652;9.194;2022-08-02T13:29:10;96483.34;;;27.25;41.79
69411;BME280;56604;48.652;9.194;2022-08-02T13:31:35;96483.53;;;27.52;41.09
69411;BME280;56604;48.652;9.194;2022-08-02T13:34:03;96483.41;;;27.80;40.29
69411;BME280;56604;48.652;9.194;2022-08-02T13:36:29;96477.28;;;27.48;41.01